Harriman, Wyoming
Current Conditions -  °F | °C
As of 4:56 AM on Sunday 25 Jan 2015 (Local Time) from KFEW Reporting Station
Clear Clear  
Wind Chill: 22°   Ceiling: Unl
Heat Index: 30°   Visibility: 10mi
Dew Point: 22°   Wind: 8mph
Humidity: 71%   Direction: 300°WNW
Pressure: 30.08"   Gusts: NA
Location:  41.0966°N, 105.138°W
Report Text: KFEW 251156Z AUTO 30007KT 10SM CLR M01/M06 A3008 RMK AO2 SLP196 T10121058 10038 21018 50003 $
Loading
Personal Weather Stations






























Interactive Weather Map New forecast layout! Learn more

10-Day Weather Forecast

Advertisements
Track Severe Weather on mobile